sensor_id;sensor_type;location;lat;lon;timestamp;P1;durP1;ratioP1;P2;durP2;ratioP2
19492;SDS011;9887;54.366;10.958;2023-10-09T00:00:06;2.63;;;1.00;;
19492;SDS011;9887;54.366;10.958;2023-10-09T00:03:03;4.40;;;1.45;;
19492;SDS011;9887;54.366;10.958;2023-10-09T00:05:33;3.75;;;0.98;;
19492;SDS011;9887;54.366;10.958;2023-10-09T00:08:12;3.58;;;1.25;;
19492;SDS011;9887;54.366;10.958;2023-10-09T00:10:45;2.00;;;1.00;;
19492;SDS011;9887;54.366;10.958;2023-10-09T00:13:21;3.35;;;1.17;;
19492;SDS011;9887;54.366;10.958;2023-10-09T00:15:55;2.40;;;1.00;;
19492;SDS011;9887;54.366;10.958;2023-10-09T00:18:27;2.58;;;1.40;;
19492;SDS011;9887;54.366;10.958;2023-10-09T00:21:01;2.80;;;1.02;;
19492;SDS011;9887;54.366;10.958;2023-10-09T00:23:38;3.35;;;1.17;;
19492;SDS011;9887;54.366;10.958;2023-10-09T00:26:06;3.72;;;0.98;;
19492;SDS011;9887;54.366;10.958;2023-10-09T00:28:44;3.10;;;1.20;;
19492;SDS011;9887;54.366;10.958;2023-10-09T00:31:13;3.47;;;1.00;;
19492;SDS011;9887;54.366;10.958;2023-10-09T00:33:53;2.63;;;1.10;;
19492;SDS011;9887;54.366;10.958;2023-10-09T00:36:22;2.60;;;1.10;;
19492;SDS011;9887;54.366;10.958;2023-10-09T00:38:55;2.75;;;1.15;;
19492;SDS011;9887;54.366;10.958;2023-10-09T00:41:27;2.00;;;0.82;;
19492;SDS011;9887;54.366;10.958;2023-10-09T00:43:56;4.03;;;1.25;;
19492;SDS011;9887;54.366;10.958;2023-10-09T00:46:26;2.65;;;0.82;;
19492;SDS011;9887;54.366;10.958;2023-10-09T00:48:55;2.60;;;1.10;;
19492;SDS011;9887;54.366;10.958;2023-10-09T00:51:27;2.95;;;0.90;;
19492;SDS011;9887;54.366;10.958;2023-10-09T00:54:02;2.05;;;0.90;;
19492;SDS011;9887;54.366;10.958;2023-10-09T00:56:40;2.83;;;1.00;;
19492;SDS011;9887;54.366;10.958;2023-10-09T00:59:19;4.28;;;1.02;;
19492;SDS011;9887;54.366;10.958;2023-10-09T01:01:48;3.83;;;0.75;;
19492;SDS011;9887;54.366;10.958;2023-10-09T01:04:24;2.60;;;0.95;;
19492;SDS011;9887;54.366;10.958;2023-10-09T01:06:55;3.25;;;1.10;;
19492;SDS011;9887;54.366;10.958;2023-10-09T01:09:35;3.40;;;1.17;;
19492;SDS011;9887;54.366;10.958;2023-10-09T01:12:04;4.18;;;0.90;;
19492;SDS011;9887;54.366;10.958;2023-10-09T01:14:35;2.58;;;1.02;;
19492;SDS011;9887;54.366;10.958;2023-10-09T01:17:04;3.58;;;1.20;;
19492;SDS011;9887;54.366;10.958;2023-10-09T01:19:55;2.90;;;1.10;;
19492;SDS011;9887;54.366;10.958;2023-10-09T01:22:29;2.30;;;0.95;;
19492;SDS011;9887;54.366;10.958;2023-10-09T01:24:59;2.20;;;1.00;;
19492;SDS011;9887;54.366;10.958;2023-10-09T01:27:32;1.65;;;0.85;;
19492;SDS011;9887;54.366;10.958;2023-10-09T01:30:00;5.38;;;1.00;;
19492;SDS011;9887;54.366;10.958;2023-10-09T01:32:28;2.85;;;1.15;;
19492;SDS011;9887;54.366;10.958;2023-10-09T01:34:56;3.90;;;1.02;;
19492;SDS011;9887;54.366;10.958;2023-10-09T01:37:24;2.90;;;1.00;;
19492;SDS011;9887;54.366;10.958;2023-10-09T01:39:56;3.80;;;0.90;;
19492;SDS011;9887;54.366;10.958;2023-10-09T01:42:27;2.47;;;0.93;;
19492;SDS011;9887;54.366;10.958;2023-10-09T01:45:01;4.40;;;1.48;;
19492;SDS011;9887;54.366;10.958;2023-10-09T01:47:43;3.88;;;0.95;;
19492;SDS011;9887;54.366;10.958;2023-10-09T01:50:18;2.95;;;1.30;;
19492;SDS011;9887;54.366;10.958;2023-10-09T01:52:48;3.15;;;1.08;;
19492;SDS011;9887;54.366;10.958;2023-10-09T01:55:17;3.45;;;1.33;;
19492;SDS011;9887;54.366;10.958;2023-10-09T01:58:00;2.33;;;1.17;;
19492;SDS011;9887;54.366;10.958;2023-10-09T02:00:32;2.22;;;1.00;;
19492;SDS011;9887;54.366;10.958;2023-10-09T02:03:08;2.45;;;1.00;;
19492;SDS011;9887;54.366;10.958;2023-10-09T02:05:41;4.55;;;1.33;;
19492;SDS011;9887;54.366;10.958;2023-10-09T02:08:09;2.45;;;1.02;;
19492;SDS011;9887;54.366;10.958;2023-10-09T02:10:38;4.18;;;1.33;;
19492;SDS011;9887;54.366;10.958;2023-10-09T02:13:09;3.00;;;1.10;;
19492;SDS011;9887;54.366;10.958;2023-10-09T02:15:38;3.00;;;1.10;;
19492;SDS011;9887;54.366;10.958;2023-10-09T02:18:18;2.40;;;1.08;;
19492;SDS011;9887;54.366;10.958;2023-10-09T02:21:04;2.75;;;1.38;;
19492;SDS011;9887;54.366;10.958;2023-10-09T02:23:40;4.07;;;1.40;;
19492;SDS011;9887;54.366;10.958;2023-10-09T02:26:13;2.40;;;1.15;;
19492;SDS011;9887;54.366;10.958;2023-10-09T02:28:47;5.43;;;1.45;;
19492;SDS011;9887;54.366;10.958;2023-10-09T02:31:26;3.47;;;1.08;;
19492;SDS011;9887;54.366;10.958;2023-10-09T02:34:02;2.42;;;1.27;;
19492;SDS011;9887;54.366;10.958;2023-10-09T02:36:32;3.33;;;1.00;;
19492;SDS011;9887;54.366;10.958;2023-10-09T02:39:01;3.55;;;1.15;;
19492;SDS011;9887;54.366;10.958;2023-10-09T02:41:32;3.65;;;1.17;;
19492;SDS011;9887;54.366;10.958;2023-10-09T02:44:02;2.70;;;1.02;;
19492;SDS011;9887;54.366;10.958;2023-10-09T02:46:38;2.33;;;1.23;;
19492;SDS011;9887;54.366;10.958;2023-10-09T02:49:06;2.42;;;0.90;;
19492;SDS011;9887;54.366;10.958;2023-10-09T02:51:36;2.72;;;1.33;;
19492;SDS011;9887;54.366;10.958;2023-10-09T02:54:08;3.33;;;1.30;;
19492;SDS011;9887;54.366;10.958;2023-10-09T02:56:46;3.28;;;1.05;;
19492;SDS011;9887;54.366;10.958;2023-10-09T02:59:23;3.83;;;1.00;;
19492;SDS011;9887;54.366;10.958;2023-10-09T03:01:51;2.88;;;1.40;;
19492;SDS011;9887;54.366;10.958;2023-10-09T03:04:19;1.88;;;0.93;;
19492;SDS011;9887;54.366;10.958;2023-10-09T03:06:50;4.90;;;0.90;;
19492;SDS011;9887;54.366;10.958;2023-10-09T03:09:19;2.70;;;1.05;;
19492;SDS011;9887;54.366;10.958;2023-10-09T03:11:54;3.85;;;1.38;;
19492;SDS011;9887;54.366;10.958;2023-10-09T03:14:30;3.63;;;1.20;;
19492;SDS011;9887;54.366;10.958;2023-10-09T03:17:01;2.40;;;0.98;;
19492;SDS011;9887;54.366;10.958;2023-10-09T03:19:31;3.80;;;1.20;;
19492;SDS011;9887;54.366;10.958;2023-10-09T03:22:04;3.47;;;1.13;;
19492;SDS011;9887;54.366;10.958;2023-10-09T03:24:37;4.32;;;1.30;;
19492;SDS011;9887;54.366;10.958;2023-10-09T03:27:08;2.72;;;0.90;;
19492;SDS011;9887;54.366;10.958;2023-10-09T03:29:37;5.75;;;1.17;;
19492;SDS011;9887;54.366;10.958;2023-10-09T03:32:05;2.85;;;1.17;;
19492;SDS011;9887;54.366;10.958;2023-10-09T03:34:33;2.80;;;1.13;;
19492;SDS011;9887;54.366;10.958;2023-10-09T03:37:01;3.65;;;1.20;;
19492;SDS011;9887;54.366;10.958;2023-10-09T03:39:32;5.57;;;1.13;;
19492;SDS011;9887;54.366;10.958;2023-10-09T03:42:05;2.08;;;0.93;;
19492;SDS011;9887;54.366;10.958;2023-10-09T03:44:39;2.45;;;1.00;;
19492;SDS011;9887;54.366;10.958;2023-10-09T03:47:09;2.97;;;1.00;;
19492;SDS011;9887;54.366;10.958;2023-10-09T03:49:38;2.92;;;1.30;;
19492;SDS011;9887;54.366;10.958;2023-10-09T03:52:06;4.00;;;1.48;;
19492;SDS011;9887;54.366;10.958;2023-10-09T03:54:35;3.08;;;0.90;;
19492;SDS011;9887;54.366;10.958;2023-10-09T03:57:04;4.18;;;1.20;;
19492;SDS011;9887;54.366;10.958;2023-10-09T03:59:32;3.00;;;1.00;;
19492;SDS011;9887;54.366;10.958;2023-10-09T04:02:02;3.05;;;1.30;;
19492;SDS011;9887;54.366;10.958;2023-10-09T04:04:31;7.00;;;1.50;;
19492;SDS011;9887;54.366;10.958;2023-10-09T04:06:59;3.95;;;1.20;;
19492;SDS011;9887;54.366;10.958;2023-10-09T04:09:28;3.72;;;1.15;;
19492;SDS011;9887;54.366;10.958;2023-10-09T04:12:06;4.63;;;1.30;;
19492;SDS011;9887;54.366;10.958;2023-10-09T04:14:47;5.20;;;1.40;;
19492;SDS011;9887;54.366;10.958;2023-10-09T04:17:23;2.45;;;1.27;;
19492;SDS011;9887;54.366;10.958;2023-10-09T04:20:00;4.07;;;1.10;;
19492;SDS011;9887;54.366;10.958;2023-10-09T04:22:43;2.75;;;1.02;;
19492;SDS011;9887;54.366;10.958;2023-10-09T04:25:17;2.30;;;1.20;;
19492;SDS011;9887;54.366;10.958;2023-10-09T04:27:52;2.50;;;1.08;;
19492;SDS011;9887;54.366;10.958;2023-10-09T04:30:26;2.80;;;1.08;;
19492;SDS011;9887;54.366;10.958;2023-10-09T04:32:55;2.72;;;1.00;;
19492;SDS011;9887;54.366;10.958;2023-10-09T04:35:31;2.45;;;1.17;;
19492;SDS011;9887;54.366;10.958;2023-10-09T04:37:59;3.63;;;1.40;;
19492;SDS011;9887;54.366;10.958;2023-10-09T04:40:32;5.75;;;1.30;;
19492;SDS011;9887;54.366;10.958;2023-10-09T04:43:18;2.55;;;1.10;;
19492;SDS011;9887;54.366;10.958;2023-10-09T04:45:48;3.67;;;1.35;;
19492;SDS011;9887;54.366;10.958;2023-10-09T04:48:37;3.90;;;1.30;;
19492;SDS011;9887;54.366;10.958;2023-10-09T04:51:14;2.72;;;1.30;;
19492;SDS011;9887;54.366;10.958;2023-10-09T04:53:48;3.03;;;1.30;;
19492;SDS011;9887;54.366;10.958;2023-10-09T04:56:26;3.17;;;1.30;;
19492;SDS011;9887;54.366;10.958;2023-10-09T04:58:59;5.07;;;1.80;;
19492;SDS011;9887;54.366;10.958;2023-10-09T05:01:33;2.45;;;1.17;;
19492;SDS011;9887;54.366;10.958;2023-10-09T05:04:12;3.28;;;1.17;;
19492;SDS011;9887;54.366;10.958;2023-10-09T05:06:56;2.03;;;1.15;;
19492;SDS011;9887;54.366;10.958;2023-10-09T05:09:23;3.38;;;1.35;;
19492;SDS011;9887;54.366;10.958;2023-10-09T05:11:51;4.03;;;1.67;;
19492;SDS011;9887;54.366;10.958;2023-10-09T05:14:42;5.60;;;1.45;;
19492;SDS011;9887;54.366;10.958;2023-10-09T05:17:31;4.28;;;1.45;;
19492;SDS011;9887;54.366;10.958;2023-10-09T05:20:02;3.58;;;1.65;;
19492;SDS011;9887;54.366;10.958;2023-10-09T05:22:44;3.42;;;1.63;;
19492;SDS011;9887;54.366;10.958;2023-10-09T05:25:23;2.58;;;1.33;;
19492;SDS011;9887;54.366;10.958;2023-10-09T05:28:19;2.65;;;1.25;;
19492;SDS011;9887;54.366;10.958;2023-10-09T05:30:58;3.80;;;1.67;;
19492;SDS011;9887;54.366;10.958;2023-10-09T05:33:36;4.20;;;1.50;;
19492;SDS011;9887;54.366;10.958;2023-10-09T05:36:06;3.85;;;1.55;;
19492;SDS011;9887;54.366;10.958;2023-10-09T05:38:58;4.45;;;1.58;;
19492;SDS011;9887;54.366;10.958;2023-10-09T05:41:25;4.43;;;1.55;;
19492;SDS011;9887;54.366;10.958;2023-10-09T05:44:14;3.38;;;1.55;;
19492;SDS011;9887;54.366;10.958;2023-10-09T05:46:59;2.60;;;1.30;;
19492;SDS011;9887;54.366;10.958;2023-10-09T05:49:45;4.22;;;1.75;;
19492;SDS011;9887;54.366;10.958;2023-10-09T05:52:43;4.05;;;1.55;;
19492;SDS011;9887;54.366;10.958;2023-10-09T05:55:29;4.40;;;1.50;;
19492;SDS011;9887;54.366;10.958;2023-10-09T05:58:35;3.85;;;1.63;;
19492;SDS011;9887;54.366;10.958;2023-10-09T06:01:28;4.07;;;1.58;;
19492;SDS011;9887;54.366;10.958;2023-10-09T06:04:14;5.18;;;1.48;;
19492;SDS011;9887;54.366;10.958;2023-10-09T06:06:44;3.25;;;1.30;;
19492;SDS011;9887;54.366;10.958;2023-10-09T06:09:14;4.45;;;1.42;;
19492;SDS011;9887;54.366;10.958;2023-10-09T06:12:00;4.18;;;1.33;;
19492;SDS011;9887;54.366;10.958;2023-10-09T06:14:46;5.47;;;1.40;;
19492;SDS011;9887;54.366;10.958;2023-10-09T06:17:24;5.00;;;1.67;;
19492;SDS011;9887;54.366;10.958;2023-10-09T06:19:54;3.92;;;1.42;;
19492;SDS011;9887;54.366;10.958;2023-10-09T06:22:25;5.13;;;1.70;;
19492;SDS011;9887;54.366;10.958;2023-10-09T06:25:15;3.65;;;1.50;;
19492;SDS011;9887;54.366;10.958;2023-10-09T06:27:44;4.30;;;1.30;;
19492;SDS011;9887;54.366;10.958;2023-10-09T06:30:23;3.67;;;1.25;;
19492;SDS011;9887;54.366;10.958;2023-10-09T06:32:53;3.40;;;1.40;;
19492;SDS011;9887;54.366;10.958;2023-10-09T06:35:46;4.15;;;1.60;;
19492;SDS011;9887;54.366;10.958;2023-10-09T06:38:20;2.70;;;1.40;;
19492;SDS011;9887;54.366;10.958;2023-10-09T06:40:51;3.92;;;1.55;;
19492;SDS011;9887;54.366;10.958;2023-10-09T06:43:36;3.80;;;1.73;;
19492;SDS011;9887;54.366;10.958;2023-10-09T06:46:14;3.95;;;1.40;;
19492;SDS011;9887;54.366;10.958;2023-10-09T06:49:10;4.30;;;1.40;;
19492;SDS011;9887;54.366;10.958;2023-10-09T06:51:55;3.85;;;1.40;;
19492;SDS011;9887;54.366;10.958;2023-10-09T06:54:40;6.13;;;1.60;;
19492;SDS011;9887;54.366;10.958;2023-10-09T06:57:18;3.88;;;1.50;;
19492;SDS011;9887;54.366;10.958;2023-10-09T07:00:00;3.60;;;1.40;;
19492;SDS011;9887;54.366;10.958;2023-10-09T07:02:57;3.35;;;1.55;;
19492;SDS011;9887;54.366;10.958;2023-10-09T07:05:37;3.40;;;1.30;;
19492;SDS011;9887;54.366;10.958;2023-10-09T07:08:27;6.60;;;1.70;;
19492;SDS011;9887;54.366;10.958;2023-10-09T07:11:00;4.90;;;1.67;;
19492;SDS011;9887;54.366;10.958;2023-10-09T07:13:48;3.92;;;1.38;;
19492;SDS011;9887;54.366;10.958;2023-10-09T07:16:22;3.30;;;1.60;;
19492;SDS011;9887;54.366;10.958;2023-10-09T07:18:55;2.70;;;1.40;;
19492;SDS011;9887;54.366;10.958;2023-10-09T07:21:35;5.20;;;1.40;;
19492;SDS011;9887;54.366;10.958;2023-10-09T07:24:05;3.83;;;1.50;;
19492;SDS011;9887;54.366;10.958;2023-10-09T07:26:42;4.63;;;1.38;;
19492;SDS011;9887;54.366;10.958;2023-10-09T07:29:20;3.30;;;1.20;;
19492;SDS011;9887;54.366;10.958;2023-10-09T07:31:49;3.47;;;1.60;;
19492;SDS011;9887;54.366;10.958;2023-10-09T07:34:24;3.95;;;1.33;;
19492;SDS011;9887;54.366;10.958;2023-10-09T07:36:59;3.17;;;1.52;;
19492;SDS011;9887;54.366;10.958;2023-10-09T07:39:30;4.32;;;1.45;;
19492;SDS011;9887;54.366;10.958;2023-10-09T07:42:04;3.47;;;1.50;;
19492;SDS011;9887;54.366;10.958;2023-10-09T07:44:48;3.08;;;1.40;;
19492;SDS011;9887;54.366;10.958;2023-10-09T07:47:20;4.80;;;1.50;;
19492;SDS011;9887;54.366;10.958;2023-10-09T07:50:09;5.50;;;1.75;;
19492;SDS011;9887;54.366;10.958;2023-10-09T07:52:38;4.30;;;1.52;;
19492;SDS011;9887;54.366;10.958;2023-10-09T07:55:09;4.40;;;1.50;;
19492;SDS011;9887;54.366;10.958;2023-10-09T07:57:52;3.78;;;1.48;;
19492;SDS011;9887;54.366;10.958;2023-10-09T08:00:22;3.45;;;1.52;;
19492;SDS011;9887;54.366;10.958;2023-10-09T08:03:33;3.45;;;1.40;;
19492;SDS011;9887;54.366;10.958;2023-10-09T08:06:02;4.65;;;1.90;;
19492;SDS011;9887;54.366;10.958;2023-10-09T08:08:51;4.57;;;1.40;;
19492;SDS011;9887;54.366;10.958;2023-10-09T08:11:33;4.72;;;1.65;;
19492;SDS011;9887;54.366;10.958;2023-10-09T08:14:24;3.42;;;1.27;;
19492;SDS011;9887;54.366;10.958;2023-10-09T08:17:07;3.97;;;1.40;;
19492;SDS011;9887;54.366;10.958;2023-10-09T08:19:42;4.40;;;1.67;;
19492;SDS011;9887;54.366;10.958;2023-10-09T08:22:24;5.60;;;1.70;;
19492;SDS011;9887;54.366;10.958;2023-10-09T08:25:16;4.45;;;1.52;;
19492;SDS011;9887;54.366;10.958;2023-10-09T08:27:54;3.50;;;1.33;;
19492;SDS011;9887;54.366;10.958;2023-10-09T08:30:24;3.67;;;1.17;;
19492;SDS011;9887;54.366;10.958;2023-10-09T08:33:09;4.15;;;1.30;;
19492;SDS011;9887;54.366;10.958;2023-10-09T08:35:57;3.58;;;1.40;;
19492;SDS011;9887;54.366;10.958;2023-10-09T08:38:31;2.88;;;1.20;;
19492;SDS011;9887;54.366;10.958;2023-10-09T08:41:06;6.82;;;1.67;;
19492;SDS011;9887;54.366;10.958;2023-10-09T08:43:48;4.57;;;1.13;;
19492;SDS011;9887;54.366;10.958;2023-10-09T08:46:22;3.67;;;1.38;;
19492;SDS011;9887;54.366;10.958;2023-10-09T08:48:55;3.53;;;1.40;;
19492;SDS011;9887;54.366;10.958;2023-10-09T08:51:25;3.15;;;1.38;;
19492;SDS011;9887;54.366;10.958;2023-10-09T08:53:55;3.20;;;1.40;;
19492;SDS011;9887;54.366;10.958;2023-10-09T08:56:24;4.88;;;1.20;;
19492;SDS011;9887;54.366;10.958;2023-10-09T08:58:52;2.33;;;1.00;;
19492;SDS011;9887;54.366;10.958;2023-10-09T09:01:22;3.00;;;1.25;;
19492;SDS011;9887;54.366;10.958;2023-10-09T09:03:52;3.17;;;1.00;;
19492;SDS011;9887;54.366;10.958;2023-10-09T09:06:22;2.17;;;0.98;;
19492;SDS011;9887;54.366;10.958;2023-10-09T09:08:51;3.55;;;1.15;;
19492;SDS011;9887;54.366;10.958;2023-10-09T09:11:25;4.45;;;1.50;;
19492;SDS011;9887;54.366;10.958;2023-10-09T09:14:02;3.15;;;1.17;;
19492;SDS011;9887;54.366;10.958;2023-10-09T09:16:33;4.85;;;1.42;;
19492;SDS011;9887;54.366;10.958;2023-10-09T09:19:05;3.67;;;1.40;;
19492;SDS011;9887;54.366;10.958;2023-10-09T09:21:48;2.25;;;1.20;;
19492;SDS011;9887;54.366;10.958;2023-10-09T09:24:21;3.17;;;1.10;;
19492;SDS011;9887;54.366;10.958;2023-10-09T09:27:00;3.35;;;1.38;;
19492;SDS011;9887;54.366;10.958;2023-10-09T09:29:39;6.57;;;1.67;;
19492;SDS011;9887;54.366;10.958;2023-10-09T09:32:25;4.07;;;1.58;;
19492;SDS011;9887;54.366;10.958;2023-10-09T09:35:04;4.30;;;1.58;;
19492;SDS011;9887;54.366;10.958;2023-10-09T09:37:44;4.03;;;1.45;;
19492;SDS011;9887;54.366;10.958;2023-10-09T09:40:21;4.03;;;1.45;;
19492;SDS011;9887;54.366;10.958;2023-10-09T09:43:01;4.78;;;1.58;;
19492;SDS011;9887;54.366;10.958;2023-10-09T09:45:33;5.47;;;1.90;;
19492;SDS011;9887;54.366;10.958;2023-10-09T09:48:02;5.03;;;1.52;;
19492;SDS011;9887;54.366;10.958;2023-10-09T09:50:34;6.00;;;1.77;;
19492;SDS011;9887;54.366;10.958;2023-10-09T09:53:09;4.05;;;1.73;;
19492;SDS011;9887;54.366;10.958;2023-10-09T09:55:44;5.60;;;2.08;;
19492;SDS011;9887;54.366;10.958;2023-10-09T09:58:18;4.68;;;1.83;;
19492;SDS011;9887;54.366;10.958;2023-10-09T10:00:50;4.68;;;1.80;;
19492;SDS011;9887;54.366;10.958;2023-10-09T10:03:23;3.17;;;1.45;;
19492;SDS011;9887;54.366;10.958;2023-10-09T10:05:55;4.65;;;1.42;;
19492;SDS011;9887;54.366;10.958;2023-10-09T10:08:24;4.13;;;1.70;;
19492;SDS011;9887;54.366;10.958;2023-10-09T10:10:58;8.10;;;1.95;;
19492;SDS011;9887;54.366;10.958;2023-10-09T10:13:54;5.82;;;2.08;;
19492;SDS011;9887;54.366;10.958;2023-10-09T10:16:28;4.55;;;1.88;;
19492;SDS011;9887;54.366;10.958;2023-10-09T10:19:01;3.90;;;2.00;;
19492;SDS011;9887;54.366;10.958;2023-10-09T10:21:48;4.80;;;1.98;;
19492;SDS011;9887;54.366;10.958;2023-10-09T10:27:21;4.38;;;1.95;;
19492;SDS011;9887;54.366;10.958;2023-10-09T10:33:00;4.97;;;2.20;;
19492;SDS011;9887;54.366;10.958;2023-10-09T10:35:39;5.65;;;1.80;;
19492;SDS011;9887;54.366;10.958;2023-10-09T10:38:25;3.80;;;2.08;;
19492;SDS011;9887;54.366;10.958;2023-10-09T10:41:09;5.25;;;2.50;;
19492;SDS011;9887;54.366;10.958;2023-10-09T10:43:43;5.75;;;2.25;;
19492;SDS011;9887;54.366;10.958;2023-10-09T10:46:27;4.78;;;2.10;;
19492;SDS011;9887;54.366;10.958;2023-10-09T10:49:01;5.28;;;2.35;;
19492;SDS011;9887;54.366;10.958;2023-10-09T10:51:42;5.20;;;2.28;;
19492;SDS011;9887;54.366;10.958;2023-10-09T10:54:23;4.30;;;2.28;;
19492;SDS011;9887;54.366;10.958;2023-10-09T10:57:13;6.47;;;2.60;;
19492;SDS011;9887;54.366;10.958;2023-10-09T10:59:55;5.95;;;2.28;;
19492;SDS011;9887;54.366;10.958;2023-10-09T11:02:43;8.15;;;2.53;;
19492;SDS011;9887;54.366;10.958;2023-10-09T11:05:14;6.57;;;2.47;;
19492;SDS011;9887;54.366;10.958;2023-10-09T11:07:50;5.38;;;2.35;;
19492;SDS011;9887;54.366;10.958;2023-10-09T11:10:24;5.10;;;2.38;;
19492;SDS011;9887;54.366;10.958;2023-10-09T11:12:58;6.63;;;2.35;;
19492;SDS011;9887;54.366;10.958;2023-10-09T11:15:55;4.80;;;2.53;;
19492;SDS011;9887;54.366;10.958;2023-10-09T11:18:41;5.72;;;2.45;;
19492;SDS011;9887;54.366;10.958;2023-10-09T11:21:13;7.72;;;2.15;;
19492;SDS011;9887;54.366;10.958;2023-10-09T11:23:57;5.93;;;2.58;;
19492;SDS011;9887;54.366;10.958;2023-10-09T11:26:27;4.35;;;2.35;;
19492;SDS011;9887;54.366;10.958;2023-10-09T11:29:06;5.85;;;2.85;;
19492;SDS011;9887;54.366;10.958;2023-10-09T11:31:56;7.75;;;3.13;;
19492;SDS011;9887;54.366;10.958;2023-10-09T11:34:27;3.88;;;2.30;;
19492;SDS011;9887;54.366;10.958;2023-10-09T11:36:59;7.53;;;3.20;;
19492;SDS011;9887;54.366;10.958;2023-10-09T11:39:28;7.82;;;2.72;;
19492;SDS011;9887;54.366;10.958;2023-10-09T11:42:07;5.20;;;2.80;;
19492;SDS011;9887;54.366;10.958;2023-10-09T11:44:38;6.07;;;3.10;;
19492;SDS011;9887;54.366;10.958;2023-10-09T11:47:07;6.97;;;3.67;;
19492;SDS011;9887;54.366;10.958;2023-10-09T11:50:01;5.40;;;2.92;;
19492;SDS011;9887;54.366;10.958;2023-10-09T11:55:44;6.88;;;3.30;;
19492;SDS011;9887;54.366;10.958;2023-10-09T11:58:16;6.05;;;3.47;;
19492;SDS011;9887;54.366;10.958;2023-10-09T12:00:49;5.30;;;2.75;;
19492;SDS011;9887;54.366;10.958;2023-10-09T12:03:24;6.70;;;3.47;;
19492;SDS011;9887;54.366;10.958;2023-10-09T12:05:59;6.57;;;3.22;;
19492;SDS011;9887;54.366;10.958;2023-10-09T12:08:30;5.63;;;3.10;;
19492;SDS011;9887;54.366;10.958;2023-10-09T12:10:59;9.02;;;3.35;;
19492;SDS011;9887;54.366;10.958;2023-10-09T12:13:32;5.13;;;3.03;;
19492;SDS011;9887;54.366;10.958;2023-10-09T12:16:00;6.72;;;3.20;;
19492;SDS011;9887;54.366;10.958;2023-10-09T12:18:34;4.63;;;2.70;;
19492;SDS011;9887;54.366;10.958;2023-10-09T12:21:02;7.65;;;3.22;;
19492;SDS011;9887;54.366;10.958;2023-10-09T12:23:30;5.35;;;2.95;;
19492;SDS011;9887;54.366;10.958;2023-10-09T12:26:02;5.53;;;3.03;;
19492;SDS011;9887;54.366;10.958;2023-10-09T12:28:32;5.60;;;3.20;;
19492;SDS011;9887;54.366;10.958;2023-10-09T12:31:00;6.10;;;3.00;;
19492;SDS011;9887;54.366;10.958;2023-10-09T12:33:28;6.95;;;3.38;;
19492;SDS011;9887;54.366;10.958;2023-10-09T12:35:57;7.38;;;3.25;;
19492;SDS011;9887;54.366;10.958;2023-10-09T12:38:27;7.72;;;3.40;;
19492;SDS011;9887;54.366;10.958;2023-10-09T12:41:02;7.25;;;3.40;;
19492;SDS011;9887;54.366;10.958;2023-10-09T12:43:36;6.90;;;3.45;;
19492;SDS011;9887;54.366;10.958;2023-10-09T12:46:05;5.70;;;2.78;;
19492;SDS011;9887;54.366;10.958;2023-10-09T12:48:34;6.07;;;3.10;;
19492;SDS011;9887;54.366;10.958;2023-10-09T12:51:03;6.03;;;2.80;;
19492;SDS011;9887;54.366;10.958;2023-10-09T12:53:33;6.82;;;3.10;;
19492;SDS011;9887;54.366;10.958;2023-10-09T12:56:06;6.40;;;3.03;;
19492;SDS011;9887;54.366;10.958;2023-10-09T12:58:36;11.13;;;3.28;;
19492;SDS011;9887;54.366;10.958;2023-10-09T13:01:09;6.13;;;3.33;;
19492;SDS011;9887;54.366;10.958;2023-10-09T13:03:38;6.43;;;3.55;;
19492;SDS011;9887;54.366;10.958;2023-10-09T13:06:06;6.35;;;3.00;;
19492;SDS011;9887;54.366;10.958;2023-10-09T13:08:37;5.30;;;3.15;;
19492;SDS011;9887;54.366;10.958;2023-10-09T13:11:07;5.32;;;3.38;;
19492;SDS011;9887;54.366;10.958;2023-10-09T13:13:40;7.63;;;3.15;;
19492;SDS011;9887;54.366;10.958;2023-10-09T13:16:10;5.85;;;3.65;;
19492;SDS011;9887;54.366;10.958;2023-10-09T13:18:40;4.68;;;2.75;;
19492;SDS011;9887;54.366;10.958;2023-10-09T13:21:17;6.43;;;3.65;;
19492;SDS011;9887;54.366;10.958;2023-10-09T13:23:45;6.45;;;3.28;;
19492;SDS011;9887;54.366;10.958;2023-10-09T13:26:14;6.88;;;3.30;;
19492;SDS011;9887;54.366;10.958;2023-10-09T13:29:00;5.68;;;3.42;;
19492;SDS011;9887;54.366;10.958;2023-10-09T13:31:30;5.65;;;2.97;;
19492;SDS011;9887;54.366;10.958;2023-10-09T13:34:01;5.22;;;3.53;;
19492;SDS011;9887;54.366;10.958;2023-10-09T13:36:30;7.22;;;3.38;;
19492;SDS011;9887;54.366;10.958;2023-10-09T13:38:59;6.70;;;3.30;;
19492;SDS011;9887;54.366;10.958;2023-10-09T13:41:46;5.43;;;3.08;;
19492;SDS011;9887;54.366;10.958;2023-10-09T13:44:16;5.35;;;2.90;;
19492;SDS011;9887;54.366;10.958;2023-10-09T13:46:44;5.97;;;3.08;;
19492;SDS011;9887;54.366;10.958;2023-10-09T13:49:12;5.78;;;3.22;;
19492;SDS011;9887;54.366;10.958;2023-10-09T13:51:40;5.03;;;2.80;;
19492;SDS011;9887;54.366;10.958;2023-10-09T13:54:10;7.07;;;3.38;;
19492;SDS011;9887;54.366;10.958;2023-10-09T13:56:46;5.15;;;3.42;;
19492;SDS011;9887;54.366;10.958;2023-10-09T13:59:20;5.20;;;2.97;;
19492;SDS011;9887;54.366;10.958;2023-10-09T14:01:49;6.38;;;2.97;;
19492;SDS011;9887;54.366;10.958;2023-10-09T14:04:17;6.50;;;3.35;;
19492;SDS011;9887;54.366;10.958;2023-10-09T14:06:45;5.50;;;3.38;;
19492;SDS011;9887;54.366;10.958;2023-10-09T14:09:13;4.65;;;2.67;;
19492;SDS011;9887;54.366;10.958;2023-10-09T14:11:58;8.07;;;3.15;;
19492;SDS011;9887;54.366;10.958;2023-10-09T14:14:34;6.45;;;3.10;;
19492;SDS011;9887;54.366;10.958;2023-10-09T14:17:05;5.20;;;2.80;;
19492;SDS011;9887;54.366;10.958;2023-10-09T14:19:38;7.05;;;2.97;;
19492;SDS011;9887;54.366;10.958;2023-10-09T14:22:07;7.65;;;3.08;;
19492;SDS011;9887;54.366;10.958;2023-10-09T14:24:35;6.40;;;3.00;;
19492;SDS011;9887;54.366;10.958;2023-10-09T14:27:04;5.22;;;3.20;;
19492;SDS011;9887;54.366;10.958;2023-10-09T14:29:38;5.85;;;2.97;;
19492;SDS011;9887;54.366;10.958;2023-10-09T14:32:08;6.53;;;3.15;;
19492;SDS011;9887;54.366;10.958;2023-10-09T14:34:40;5.18;;;2.90;;
19492;SDS011;9887;54.366;10.958;2023-10-09T14:37:16;5.35;;;3.13;;
19492;SDS011;9887;54.366;10.958;2023-10-09T14:39:45;4.47;;;2.80;;
19492;SDS011;9887;54.366;10.958;2023-10-09T14:42:15;6.10;;;3.08;;
19492;SDS011;9887;54.366;10.958;2023-10-09T14:44:44;7.90;;;2.97;;
19492;SDS011;9887;54.366;10.958;2023-10-09T14:47:12;5.13;;;2.83;;
19492;SDS011;9887;54.366;10.958;2023-10-09T14:49:41;4.75;;;2.88;;
19492;SDS011;9887;54.366;10.958;2023-10-09T14:52:11;4.60;;;2.83;;
19492;SDS011;9887;54.366;10.958;2023-10-09T14:54:43;5.30;;;3.13;;
19492;SDS011;9887;54.366;10.958;2023-10-09T14:57:11;5.30;;;2.70;;
19492;SDS011;9887;54.366;10.958;2023-10-09T14:59:39;4.45;;;2.63;;
19492;SDS011;9887;54.366;10.958;2023-10-09T15:02:11;5.80;;;2.72;;
19492;SDS011;9887;54.366;10.958;2023-10-09T15:04:39;4.65;;;2.63;;
19492;SDS011;9887;54.366;10.958;2023-10-09T15:07:07;4.88;;;2.67;;
19492;SDS011;9887;54.366;10.958;2023-10-09T15:09:35;5.28;;;2.83;;
19492;SDS011;9887;54.366;10.958;2023-10-09T15:12:06;5.78;;;3.15;;
19492;SDS011;9887;54.366;10.958;2023-10-09T15:14:35;5.20;;;2.70;;
19492;SDS011;9887;54.366;10.958;2023-10-09T15:17:03;4.43;;;2.50;;
19492;SDS011;9887;54.366;10.958;2023-10-09T15:19:34;5.63;;;2.67;;
19492;SDS011;9887;54.366;10.958;2023-10-09T15:22:03;5.97;;;3.00;;
19492;SDS011;9887;54.366;10.958;2023-10-09T15:24:36;5.72;;;2.88;;
19492;SDS011;9887;54.366;10.958;2023-10-09T15:27:04;4.95;;;2.72;;
19492;SDS011;9887;54.366;10.958;2023-10-09T15:29:32;4.75;;;2.67;;
19492;SDS011;9887;54.366;10.958;2023-10-09T15:32:03;4.97;;;2.50;;
19492;SDS011;9887;54.366;10.958;2023-10-09T15:34:42;6.75;;;3.08;;
19492;SDS011;9887;54.366;10.958;2023-10-09T15:37:10;5.38;;;2.75;;
19492;SDS011;9887;54.366;10.958;2023-10-09T15:39:39;4.80;;;2.80;;
19492;SDS011;9887;54.366;10.958;2023-10-09T15:42:11;5.72;;;2.95;;